Time;durP1;ratioP1;P1;durP2;ratioP2;P2;SDS_P1;SDS_P2;PMS_P1;PMS_P2;Temp;Humidity;BMP_temperature;BMP_pressure;BME280_temperature;BME280_humidity;BME280_pressure;Samples;Min_cycle;Max_cycle;Signal;HPM_P1;HPM_P2
2023/09/04 00:01:46;;;;;;;4.38;2.78;;;;;;;17.36;100.00;93269.34;5012849;28;20050;-78
2023/09/04 00:04:13;;;;;;;4.00;2.80;;;;;;;17.08;100.00;93266.81;5010377;28;20058;-78
2023/09/04 00:06:41;;;;;;;5.68;2.80;;;;;;;17.11;100.00;93269.94;5011992;28;20052;-77
2023/09/04 00:09:08;;;;;;;4.78;2.78;;;;;;;17.09;100.00;93260.56;5021384;28;20447;-79
2023/09/04 00:11:36;;;;;;;3.95;2.70;;;;;;;17.07;100.00;93257.47;5010073;28;20054;-78
2023/09/04 00:14:02;;;;;;;4.38;3.20;;;;;;;17.08;100.00;93259.00;5015066;28;20099;-80
2023/09/04 00:16:29;;;;;;;3.70;2.92;;;;;;;16.99;100.00;93244.91;5028629;28;20045;-80
2023/09/04 00:18:56;;;;;;;2.92;2.40;;;;;;;17.05;100.00;93237.97;5028308;28;20049;-81
2023/09/04 00:21:22;;;;;;;5.28;3.15;;;;;;;17.10;100.00;93240.59;5019718;28;20135;-81
2023/09/04 00:23:49;;;;;;;2.80;2.35;;;;;;;17.09;100.00;93219.06;5013207;28;20045;-82
2023/09/04 00:26:16;;;;;;;3.53;2.80;;;;;;;16.97;100.00;93221.03;5010379;28;20046;-81
2023/09/04 00:28:44;;;;;;;5.60;3.20;;;;;;;17.03;100.00;93207.06;5010388;28;20397;-83
2023/09/04 00:31:11;;;;;;;4.45;3.13;;;;;;;17.08;100.00;93209.72;5009782;28;20050;-83
2023/09/04 00:33:38;;;;;;;4.80;3.35;;;;;;;17.04;100.00;93205.28;5023290;28;20111;-82
2023/09/04 00:36:05;;;;;;;4.35;2.65;;;;;;;16.91;100.00;93191.69;5014383;28;20443;-83
2023/09/04 00:38:31;;;;;;;4.20;3.10;;;;;;;16.88;100.00;93197.34;5014704;28;20088;-82
2023/09/04 00:40:58;;;;;;;3.50;3.15;;;;;;;16.76;100.00;93205.31;5012348;28;20064;-82
2023/09/04 00:43:25;;;;;;;5.63;3.60;;;;;;;16.66;100.00;93193.03;5018062;28;20042;-83
2023/09/04 00:45:53;;;;;;;5.60;3.75;;;;;;;16.65;100.00;93188.88;5012535;28;20397;-79
2023/09/04 00:48:20;;;;;;;3.33;2.75;;;;;;;16.66;100.00;93179.31;5011338;28;20050;-80
2023/09/04 00:50:47;;;;;;;4.63;2.85;;;;;;;16.83;100.00;93192.13;5009348;28;20042;-81
2023/09/04 00:53:14;;;;;;;5.15;3.35;;;;;;;16.91;100.00;93186.50;5011269;28;20454;-81
2023/09/04 00:55:40;;;;;;;4.68;3.55;;;;;;;16.96;100.00;93183.13;5009814;28;20115;-81
2023/09/04 00:58:07;;;;;;;4.93;2.92;;;;;;;16.77;100.00;93182.75;5020288;28;20116;-81
2023/09/04 01:00:34;;;;;;;4.72;3.17;;;;;;;16.16;100.00;93162.03;5010481;28;20401;-80
2023/09/04 01:03:04;;;;;;;4.38;3.15;;;;;;;16.11;100.00;93179.34;5013426;28;20104;-80
2023/09/04 01:05:32;;;;;;;4.75;3.33;;;;;;;16.03;100.00;93157.25;5009392;28;20115;-80
2023/09/04 01:07:59;;;;;;;5.15;3.38;;;;;;;15.75;100.00;93126.13;5001100;28;20801;-81
2023/09/04 01:10:34;;;;;;;5.15;3.63;;;;;;;15.99;100.00;93175.09;5010924;28;20112;-80
2023/09/04 01:13:08;;;;;;;6.63;4.00;;;;;;;16.00;100.00;93181.84;5013492;28;20459;-81
2023/09/04 01:15:36;;;;;;;6.20;3.95;;;;;;;16.00;100.00;93176.66;5009373;28;20575;-81
2023/09/04 01:18:04;;;;;;;4.63;3.35;;;;;;;15.90;100.00;93142.84;5011303;28;20103;-80
2023/09/04 01:20:32;;;;;;;4.82;3.75;;;;;;;16.17;100.00;93173.19;5009030;28;20827;-80
2023/09/04 01:23:00;;;;;;;6.03;3.97;;;;;;;16.09;100.00;93163.25;5008720;28;20057;-79
2023/09/04 01:25:39;;;;;;;4.93;3.53;;;;;;;15.91;100.00;93139.22;5009723;28;20129;-79
2023/09/04 01:28:13;;;;;;;5.07;3.28;;;;;;;16.04;100.00;93158.81;5009341;28;20049;-79
2023/09/04 01:30:48;;;;;;;7.35;3.63;;;;;;;16.12;100.00;93158.38;5009302;28;20046;-80
2023/09/04 01:33:20;;;;;;;6.05;3.88;;;;;;;16.25;100.00;93156.41;5010528;28;20954;-80
2023/09/04 01:35:51;;;;;;;4.80;3.45;;;;;;;16.35;100.00;93155.72;5008967;28;20050;-82
2023/09/04 01:38:18;;;;;;;4.30;3.10;;;;;;;16.43;100.00;93169.00;5011685;28;20111;-81
2023/09/04 01:40:50;;;;;;;4.90;3.75;;;;;;;16.48;100.00;93162.31;5009040;28;20049;-81
2023/09/04 01:43:16;;;;;;;4.97;3.42;;;;;;;16.47;100.00;93160.75;5008680;28;20104;-81
2023/09/04 01:45:43;;;;;;;5.40;3.10;;;;;;;16.45;100.00;93155.00;5015718;28;20144;-82
2023/09/04 01:48:10;;;;;;;5.00;3.33;;;;;;;16.46;100.00;93147.00;5008796;28;20104;-81
2023/09/04 01:50:37;;;;;;;7.70;3.20;;;;;;;16.56;100.00;93161.84;5008429;28;20558;-82
2023/09/04 01:53:05;;;;;;;5.43;3.40;;;;;;;16.30;100.00;93127.97;5026412;28;20115;-82
2023/09/04 01:55:32;;;;;;;5.30;3.47;;;;;;;16.46;100.00;93139.22;5018835;28;20519;-81
2023/09/04 01:57:58;;;;;;;4.63;3.35;;;;;;;16.57;100.00;93155.63;5009294;28;21060;-81
2023/09/04 02:00:25;;;;;;;4.82;3.15;;;;;;;16.53;100.00;93157.16;5007786;28;20046;-81
2023/09/04 02:02:52;;;;;;;4.40;3.47;;;;;;;16.55;100.00;93162.88;5010432;28;20050;-81
2023/09/04 02:05:19;;;;;;;7.15;4.10;;;;;;;16.52;100.00;93158.97;5014357;28;20050;-81
2023/09/04 02:07:45;;;;;;;5.22;3.80;;;;;;;16.56;100.00;93165.22;5013562;28;20093;-81
2023/09/04 02:10:14;;;;;;;4.55;3.60;;;;;;;16.52;100.00;93161.56;5008308;28;20042;-79
2023/09/04 02:12:40;;;;;;;4.38;3.40;;;;;;;16.57;100.00;93147.84;5008453;28;20100;-80
2023/09/04 02:15:08;;;;;;;6.60;3.35;;;;;;;16.59;100.00;93150.19;5010415;28;20529;-80
2023/09/04 02:17:35;;;;;;;3.97;3.28;;;;;;;16.56;100.00;93160.03;5008015;28;20045;-81
2023/09/04 02:20:04;;;;;;;4.88;3.20;;;;;;;16.53;100.00;93162.34;5009367;28;20046;-81
2023/09/04 02:22:31;;;;;;;4.68;3.10;;;;;;;16.53;100.00;93163.13;5016187;28;20139;-81
2023/09/04 02:24:58;;;;;;;6.70;3.38;;;;;;;16.56;100.00;93165.22;5014034;28;20050;-80
2023/09/04 02:27:26;;;;;;;4.40;3.50;;;;;;;16.50;100.00;93155.84;5008034;28;20054;-80
2023/09/04 02:29:53;;;;;;;5.57;3.33;;;;;;;16.51;100.00;93157.41;5011505;28;20061;-80
2023/09/04 02:32:20;;;;;;;5.95;3.15;;;;;;;16.45;100.00;93148.03;5007457;28;20100;-81
2023/09/04 02:34:46;;;;;;;6.60;3.60;;;;;;;16.57;100.00;93147.84;5021988;28;20104;-80
2023/09/04 02:37:13;;;;;;;3.75;2.97;;;;;;;16.55;100.00;93145.53;5021684;28;20053;-83
2023/09/04 02:39:40;;;;;;;4.35;3.38;;;;;;;16.47;100.00;93127.06;5009504;28;20582;-83
2023/09/04 02:42:07;;;;;;;5.97;3.42;;;;;;;16.55;100.00;93134.34;5007747;28;20096;-81
2023/09/04 02:44:35;;;;;;;7.05;3.55;;;;;;;16.52;100.00;93130.44;5007797;28;20467;-81
2023/09/04 02:47:01;;;;;;;4.85;3.50;;;;;;;16.49;100.00;93130.97;5008246;28;20579;-81
2023/09/04 02:49:28;;;;;;;4.75;3.28;;;;;;;16.23;100.00;93099.66;5015735;28;20045;-81
2023/09/04 02:51:55;;;;;;;3.90;3.08;;;;;;;16.47;100.00;93132.22;5007305;28;20660;-81
2023/09/04 02:54:25;;;;;;;5.18;3.50;;;;;;;16.34;100.00;93130.84;5012019;28;20057;-82
2023/09/04 02:56:51;;;;;;;4.82;3.45;;;;;;;16.36;100.00;93145.13;5007646;28;20053;-82
2023/09/04 02:59:18;;;;;;;4.85;3.50;;;;;;;16.22;100.00;93118.81;5010253;28;20766;-82
2023/09/04 03:01:49;;;;;;;4.85;3.25;;;;;;;16.22;100.00;93116.22;5011561;28;20100;-84
2023/09/04 03:04:16;;;;;;;5.30;3.55;;;;;;;16.36;100.00;93139.13;5007605;28;20128;-84
2023/09/04 03:06:43;;;;;;;4.43;3.45;;;;;;;16.30;100.00;93133.91;5007494;28;20041;-84
2023/09/04 03:09:09;;;;;;;4.88;3.58;;;;;;;16.28;100.00;93130.00;5011923;28;20077;-84
2023/09/04 03:11:36;;;;;;;5.43;3.40;;;;;;;16.05;100.00;93089.66;5025614;28;20045;-83
2023/09/04 03:14:03;;;;;;;7.57;3.15;;;;;;;16.09;100.00;93095.88;5029790;28;20053;-84
2023/09/04 03:16:30;;;;;;;7.30;3.58;;;;;;;16.28;100.00;93132.59;5025598;28;20492;-84
2023/09/04 03:18:58;;;;;;;5.85;3.08;;;;;;;15.99;100.00;93087.03;5013002;28;20077;-84
2023/09/04 03:21:24;;;;;;;5.97;4.28;;;;;;;16.26;100.00;93129.47;5011037;28;20056;-82
2023/09/04 03:23:52;;;;;;;7.65;4.78;;;;;;;16.15;100.00;93124.19;5011531;28;20049;-82
2023/09/04 03:26:18;;;;;;;6.78;4.75;;;;;;;16.12;100.00;93113.53;5015409;28;20143;-82
2023/09/04 03:28:45;;;;;;;7.63;4.22;;;;;;;16.17;100.00;93124.72;5013346;28;20057;-83
2023/09/04 03:31:15;;;;;;;6.13;3.75;;;;;;;16.14;100.00;93117.47;5011029;28;20046;-82
2023/09/04 03:33:42;;;;;;;4.40;3.45;;;;;;;16.12;100.00;93118.72;5010975;28;20053;-84
2023/09/04 03:36:11;;;;;;;4.95;3.90;;;;;;;16.17;100.00;93122.13;5011150;28;20104;-82
2023/09/04 03:38:38;;;;;;;6.15;4.10;;;;;;;16.14;100.00;93122.63;5011975;28;20137;-83
2023/09/04 03:41:04;;;;;;;4.55;3.60;;;;;;;15.93;100.00;93095.78;5010594;28;20100;-83
2023/09/04 03:43:31;;;;;;;4.70;3.50;;;;;;;16.11;100.00;93130.13;5011314;28;20389;-84
2023/09/04 03:45:58;;;;;;;5.57;3.50;;;;;;;16.10;100.00;93131.94;5014518;28;20054;-83
2023/09/04 03:48:24;;;;;;;4.75;3.63;;;;;;;16.08;100.00;93123.63;5010751;28;20112;-83
2023/09/04 03:50:51;;;;;;;7.88;3.15;;;;;;;16.08;100.00;93125.44;5010800;28;20049;-83
2023/09/04 03:53:19;;;;;;;5.05;3.78;;;;;;;16.02;100.00;93125.38;5010864;28;20396;-83
2023/09/04 03:55:48;;;;;;;3.72;3.05;;;;;;;15.84;100.00;93115.34;5011672;28;20046;-83
2023/09/04 03:58:15;;;;;;;4.13;3.35;;;;;;;15.76;100.00;93107.00;5015227;28;20050;-83
2023/09/04 04:00:41;;;;;;;4.22;3.72;;;;;;;15.76;100.00;93124.31;5010968;28;20825;-83
2023/09/04 04:03:10;;;;;;;5.38;4.22;;;;;;;15.69;100.00;93123.75;5010624;28;20061;-82
2023/09/04 04:05:37;;;;;;;6.15;3.97;;;;;;;15.69;100.00;93129.69;5010832;28;20045;-81
2023/09/04 04:08:04;;;;;;;6.13;4.43;;;;;;;15.69;100.00;93136.69;5013774;28;20492;-82
2023/09/04 04:10:32;;;;;;;6.15;3.90;;;;;;;15.60;100.00;93136.34;5010525;28;20965;-82
2023/09/04 04:12:59;;;;;;;6.25;4.85;;;;;;;15.70;100.00;93144.19;5012412;28;20625;-81
2023/09/04 04:15:26;;;;;;;7.18;4.43;;;;;;;15.53;100.00;93112.44;5010724;28;20054;-82
2023/09/04 04:17:54;;;;;;;5.88;4.38;;;;;;;15.55;100.00;93112.97;5011984;28;20506;-82
2023/09/04 04:20:20;;;;;;;5.72;4.32;;;;;;;15.82;100.00;93138.88;5010296;28;20050;-82
2023/09/04 04:22:47;;;;;;;5.80;3.92;;;;;;;15.84;100.00;93136.81;5010571;28;20046;-82
2023/09/04 04:25:14;;;;;;;5.72;4.57;;;;;;;15.91;100.00;93144.41;5009405;28;20499;-82
2023/09/04 04:27:44;;;;;;;5.25;4.45;;;;;;;15.96;100.00;93148.91;5012228;28;20050;-81
2023/09/04 04:30:11;;;;;;;6.78;4.97;;;;;;;15.97;100.00;93132.34;5012486;28;20049;-81
2023/09/04 04:32:38;;;;;;;6.97;4.55;;;;;;;16.03;100.00;93142.47;5009329;28;20438;-82
2023/09/04 04:35:07;;;;;;;7.18;4.35;;;;;;;16.00;100.00;93139.59;5011070;28;20050;-81
2023/09/04 04:37:33;;;;;;;6.32;4.40;;;;;;;15.97;100.00;93125.31;5009677;28;20053;-81
2023/09/04 04:40:01;;;;;;;7.35;4.55;;;;;;;15.99;100.00;93123.28;5022337;28;20052;-81
2023/09/04 04:42:28;;;;;;;6.32;4.57;;;;;;;15.99;100.00;93122.50;5013420;28;20152;-81
2023/09/04 04:44:56;;;;;;;7.25;4.10;;;;;;;16.16;100.00;93141.31;5013714;28;20423;-82
2023/09/04 04:47:23;;;;;;;5.97;4.43;;;;;;;16.16;100.00;93133.53;5011804;28;20054;-81
2023/09/04 04:49:50;;;;;;;7.70;4.13;;;;;;;16.19;100.00;93142.63;5014960;28;20107;-81
2023/09/04 04:52:16;;;;;;;5.30;4.18;;;;;;;16.11;100.00;93115.34;5012542;28;20048;-81
2023/09/04 04:54:43;;;;;;;4.13;3.55;;;;;;;16.31;100.00;93142.47;5012184;28;20511;-81
2023/09/04 04:57:10;;;;;;;5.97;3.40;;;;;;;16.36;100.00;93136.53;5011972;28;20049;-81
2023/09/04 04:59:37;;;;;;;6.50;4.47;;;;;;;16.38;100.00;93130.09;5012537;28;20551;-81
2023/09/04 05:02:05;;;;;;;7.40;4.90;;;;;;;16.32;100.00;93120.72;5014098;28;20042;-81
2023/09/04 05:04:34;;;;;;;6.68;4.78;;;;;;;16.27;100.00;93102.53;5013613;28;20053;-80
2023/09/04 05:07:02;;;;;;;6.60;4.03;;;;;;;16.38;100.00;93135.25;5015173;28;20123;-81
2023/09/04 05:09:28;;;;;;;7.65;4.60;;;;;;;16.41;100.00;93131.41;5018137;28;20041;-80
2023/09/04 05:11:55;;;;;;;5.88;3.58;;;;;;;16.20;100.00;93131.22;5019815;28;20050;-81
2023/09/04 05:14:22;;;;;;;6.47;3.83;;;;;;;15.86;100.00;93110.69;5017881;28;20056;-81
2023/09/04 05:16:49;;;;;;;4.45;3.25;;;;;;;15.65;100.00;93104.53;5017537;28;20057;-81
2023/09/04 05:19:17;;;;;;;4.88;3.78;;;;;;;15.41;100.00;93108.16;5019896;28;20050;-81
2023/09/04 05:21:43;;;;;;;5.22;4.13;;;;;;;15.56;100.00;93132.66;5018183;28;20112;-82
2023/09/04 05:24:10;;;;;;;4.88;4.35;;;;;;;15.54;100.00;93098.44;5019189;28;20581;-82
2023/09/04 05:26:37;;;;;;;4.35;3.50;;;;;;;15.70;100.00;93114.94;5018131;28;20042;-80
2023/09/04 05:29:04;;;;;;;4.70;3.70;;;;;;;15.33;100.00;93093.06;5017510;28;20442;-81
2023/09/04 05:31:30;;;;;;;4.07;3.45;;;;;;;15.02;100.00;93126.31;5012584;28;20385;-81
2023/09/04 05:33:57;;;;;;;5.25;3.83;;;;;;;14.56;100.00;93109.13;5016863;28;20397;-80
2023/09/04 05:36:25;;;;;;;6.45;5.22;;;;;;;14.63;100.00;93125.25;5018222;28;20127;-81
2023/09/04 05:38:52;;;;;;;6.38;5.20;;;;;;;14.49;100.00;93124.78;5012276;28;20058;-80
2023/09/04 05:41:19;;;;;;;7.43;4.60;;;;;;;14.58;100.00;93127.75;5009731;28;20045;-80
2023/09/04 05:43:46;;;;;;;6.38;4.03;;;;;;;14.25;100.00;93116.41;5017379;28;20052;-81
2023/09/04 05:46:12;;;;;;;6.40;4.55;;;;;;;14.42;100.00;93116.44;5009555;28;20041;-80
2023/09/04 05:48:39;;;;;;;4.88;3.90;;;;;;;14.39;100.00;93116.88;5017381;28;20049;-80
2023/09/04 05:51:06;;;;;;;6.22;4.82;;;;;;;14.55;100.00;93110.91;5013637;28;20045;-81
2023/09/04 05:53:34;;;;;;;5.65;4.38;;;;;;;14.38;100.00;93116.13;5017156;28;20640;-81
2023/09/04 05:56:05;;;;;;;5.78;4.32;;;;;;;14.35;100.00;93115.81;5016161;28;20872;-81
2023/09/04 05:58:32;;;;;;;4.50;4.05;;;;;;;14.46;100.00;93120.13;5012888;28;20574;-81
2023/09/04 06:00:58;;;;;;;4.65;3.80;;;;;;;14.65;100.00;93118.06;5014153;28;20107;-80
2023/09/04 06:03:25;;;;;;;4.57;3.60;;;;;;;14.87;100.00;93111.41;5013324;28;20789;-81
2023/09/04 06:05:52;;;;;;;6.93;3.97;;;;;;;15.15;100.00;93118.22;5016237;28;20045;-82
2023/09/04 06:08:19;;;;;;;5.38;4.13;;;;;;;15.46;100.00;93120.41;5016751;28;20443;-81
2023/09/04 06:10:47;;;;;;;3.95;3.40;;;;;;;15.45;100.00;93092.94;5013901;28;20092;-81
2023/09/04 06:13:14;;;;;;;4.65;3.17;;;;;;;15.59;100.00;93086.34;5015508;28;20049;-80
2023/09/04 06:15:41;;;;;;;4.55;3.83;;;;;;;15.35;100.00;93078.88;5016864;28;20103;-81
2023/09/04 06:18:08;;;;;;;4.20;2.90;;;;;;;15.80;100.00;93114.25;5018046;28;20053;-81
2023/09/04 06:20:34;;;;;;;4.72;3.25;;;;;;;15.80;100.00;93109.06;5017851;28;20503;-80
2023/09/04 06:23:03;;;;;;;5.88;3.60;;;;;;;15.67;100.00;93103.25;5018623;28;20049;-81
2023/09/04 06:25:29;;;;;;;5.03;3.00;;;;;;;15.99;100.00;93115.53;5012104;28;20038;-82
2023/09/04 06:27:58;;;;;;;4.05;3.13;;;;;;;15.97;100.00;93119.38;5014022;28;20069;-82
2023/09/04 06:30:25;;;;;;;3.40;2.78;;;;;;;15.79;100.00;93121.25;5016764;28;20045;-82
2023/09/04 06:32:52;;;;;;;3.50;2.97;;;;;;;15.73;100.00;93120.41;5014231;28;20546;-81
2023/09/04 06:35:20;;;;;;;3.17;2.88;;;;;;;15.79;100.00;93116.09;5016207;28;20092;-81
2023/09/04 06:37:46;;;;;;;4.07;3.50;;;;;;;15.62;100.00;93111.78;5016972;28;20045;-82
2023/09/04 06:40:13;;;;;;;3.75;3.35;;;;;;;15.87;100.00;93101.88;5011471;28;20111;-83
2023/09/04 06:42:40;;;;;;;4.05;3.38;;;;;;;15.66;100.00;93106.09;5013584;28;20045;-82
2023/09/04 06:45:09;;;;;;;3.97;3.40;;;;;;;15.66;100.00;93122.41;5018656;28;20101;-81
2023/09/04 06:47:36;;;;;;;4.10;2.97;;;;;;;15.42;100.00;93129.66;5015491;28;20046;-83
2023/09/04 06:50:03;;;;;;;6.47;4.35;;;;;;;15.34;100.00;93110.97;5016006;28;20049;-83
2023/09/04 06:52:30;;;;;;;5.13;3.47;;;;;;;15.10;100.00;93107.81;5016320;28;20057;-81
2023/09/04 06:54:57;;;;;;;4.43;3.50;;;;;;;15.20;100.00;93117.50;5013690;28;20140;-80
2023/09/04 06:57:23;;;;;;;3.55;3.22;;;;;;;15.40;100.00;93114.38;5014403;28;20053;-82
2023/09/04 06:59:52;;;;;;;4.72;3.58;;;;;;;15.44;100.00;93093.94;5014027;28;20427;-82
2023/09/04 07:02:20;;;;;;;5.53;3.70;;;;;;;15.51;100.00;93076.44;5019130;28;20415;-82
2023/09/04 07:04:47;;;;;;;3.63;3.22;;;;;;;15.90;100.00;93120.34;5013051;28;20783;-81
2023/09/04 07:07:14;;;;;;;6.30;3.40;;;;;;;15.98;100.00;93093.22;5014846;28;20060;-83
2023/09/04 07:09:40;;;;;;;4.47;3.42;;;;;;;16.05;100.00;93105.22;5013672;28;20838;-83
2023/09/04 07:12:11;;;;;;;4.30;3.50;;;;;;;16.30;100.00;93123.53;5014479;28;20458;-82
2023/09/04 07:14:38;;;;;;;4.22;3.53;;;;;;;16.12;100.00;93121.31;5014010;28;20048;-82
2023/09/04 07:17:05;;;;;;;4.13;3.30;;;;;;;15.96;100.00;93076.38;5015519;28;20141;-82
2023/09/04 07:19:34;;;;;;;4.85;3.85;;;;;;;15.69;100.00;93043.47;5012182;28;20125;-83
2023/09/04 07:22:00;;;;;;;4.88;3.72;;;;;;;16.09;100.00;93124.38;5012005;28;20049;-82
2023/09/04 07:24:27;;;;;;;3.97;3.50;;;;;;;16.05;100.00;93121.50;5013449;28;20563;-82
2023/09/04 07:26:54;;;;;;;4.20;3.33;;;;;;;16.16;100.00;93128.34;5010639;28;20099;-82
2023/09/04 07:29:21;;;;;;;5.90;3.63;;;;;;;16.26;100.00;93124.28;5011770;28;20099;-83
2023/09/04 07:31:48;;;;;;;4.97;3.40;;;;;;;16.53;100.00;93121.63;5014865;28;20081;-84
2023/09/04 07:34:15;;;;;;;5.13;3.35;;;;;;;16.30;100.00;93128.72;5014167;28;20479;-82
2023/09/04 07:36:43;;;;;;;4.57;3.90;;;;;;;16.41;100.00;93108.88;5012030;28;20058;-82
2023/09/04 07:39:10;;;;;;;4.07;3.58;;;;;;;16.35;100.00;93107.25;5013231;28;20057;-84
2023/09/04 07:41:36;;;;;;;4.03;3.08;;;;;;;16.46;100.00;93102.13;5014523;28;20042;-84
2023/09/04 07:44:04;;;;;;;5.78;3.78;;;;;;;16.76;100.00;93124.88;5014376;28;20100;-84
2023/09/04 07:46:30;;;;;;;5.35;2.97;;;;;;;16.75;98.98;93132.94;5013396;28;20038;-85
2023/09/04 07:48:57;;;;;;;5.45;3.65;;;;;;;16.82;100.00;93128.31;5010088;28;20609;-85
2023/09/04 07:51:24;;;;;;;3.58;3.08;;;;;;;16.55;100.00;93122.19;5007596;28;20049;-85
2023/09/04 07:53:52;;;;;;;4.90;3.35;;;;;;;16.60;100.00;93118.03;5013288;28;20108;-83
2023/09/04 07:56:19;;;;;;;5.72;3.83;;;;;;;16.20;100.00;93118.28;5014062;28;20419;-84
2023/09/04 07:58:46;;;;;;;3.60;3.03;;;;;;;15.85;100.00;93125.47;5016403;28;20458;-83
2023/09/04 08:01:13;;;;;;;5.10;4.00;;;;;;;15.73;100.00;93130.78;5015144;28;20054;-83
2023/09/04 08:03:40;;;;;;;5.28;4.45;;;;;;;15.63;100.00;93131.47;5012996;28;20053;-85
2023/09/04 08:06:07;;;;;;;4.50;4.05;;;;;;;15.59;100.00;93126.97;5019284;28;20073;-82
2023/09/04 08:08:34;;;;;;;5.72;4.30;;;;;;;15.99;100.00;93131.06;5021019;28;20082;-83
2023/09/04 08:11:02;;;;;;;4.10;3.67;;;;;;;16.01;100.00;93123.81;5018104;28;20042;-83
2023/09/04 08:13:29;;;;;;;4.38;3.75;;;;;;;16.10;100.00;93129.34;5019593;28;20052;-85
2023/09/04 08:15:56;;;;;;;5.32;3.83;;;;;;;16.06;100.00;93117.88;5019231;28;20041;-81
2023/09/04 08:18:22;;;;;;;4.40;3.58;;;;;;;16.15;100.00;93133.78;5015638;28;20561;-81
2023/09/04 08:20:50;;;;;;;4.00;3.45;;;;;;;15.71;100.00;93142.41;5010398;28;20050;-80
2023/09/04 08:23:17;;;;;;;5.68;3.20;;;;;;;15.46;100.00;93130.75;5018469;28;20128;-81
2023/09/04 08:25:44;;;;;;;4.80;4.00;;;;;;;15.31;100.00;93119.19;5018293;28;20495;-85
2023/09/04 08:28:12;;;;;;;4.40;3.65;;;;;;;15.10;100.00;93129.28;5019235;28;20053;-84
2023/09/04 08:30:39;;;;;;;5.25;4.13;;;;;;;15.23;100.00;93141.09;5015168;28;20046;-83
2023/09/04 08:33:06;;;;;;;5.53;3.58;;;;;;;15.17;100.00;93134.28;5015407;28;20353;-82
2023/09/04 08:35:32;;;;;;;5.20;4.22;;;;;;;15.10;100.00;93128.50;5020770;28;20152;-85
2023/09/04 08:38:03;;;;;;;4.72;4.13;;;;;;;15.14;100.00;93139.94;5015049;28;20488;-85
2023/09/04 08:40:33;;;;;;;4.90;4.40;;;;;;;15.17;100.00;93123.16;5016118;28;20044;-85
2023/09/04 08:43:00;;;;;;;5.00;3.45;;;;;;;15.12;100.00;93141.19;5014032;28;20045;-84
2023/09/04 08:45:29;;;;;;;4.47;3.88;;;;;;;15.29;100.00;93138.56;5011719;28;20045;-84
2023/09/04 08:47:56;;;;;;;4.05;3.17;;;;;;;15.50;100.00;93142.16;5011158;28;20053;-82
2023/09/04 08:50:24;;;;;;;4.72;3.50;;;;;;;15.14;100.00;93103.72;5013704;28;20045;-83
2023/09/04 08:52:51;;;;;;;5.65;4.35;;;;;;;15.72;100.00;93139.56;5010154;28;20046;-85
2023/09/04 08:55:19;;;;;;;5.90;4.53;;;;;;;15.93;100.00;93133.84;5011520;28;20093;-86
2023/09/04 08:57:46;;;;;;;4.20;3.50;;;;;;;15.71;100.00;93117.28;5015103;28;20042;-86
2023/09/04 09:00:14;;;;;;;4.13;3.47;;;;;;;15.94;99.76;93136.19;5014069;28;20095;-83
2023/09/04 09:02:42;;;;;;;5.95;4.05;;;;;;;16.00;100.00;93142.97;5012084;28;20104;-84
2023/09/04 09:05:10;;;;;;;4.03;3.53;;;;;;;15.91;100.00;93118.50;5013435;28;20049;-84
2023/09/04 09:07:39;;;;;;;3.92;3.35;;;;;;;16.07;100.00;93121.28;5010900;28;20092;-85
2023/09/04 09:10:08;;;;;;;7.70;3.60;;;;;;;16.22;100.00;93136.97;5016008;28;20132;-85
2023/09/04 09:12:35;;;;;;;5.38;3.65;;;;;;;15.70;98.50;93099.41;5014751;28;20393;-84
2023/09/04 09:15:02;;;;;;;4.15;3.58;;;;;;;16.03;100.00;93141.72;5012361;28;20073;-84
2023/09/04 09:17:29;;;;;;;6.10;4.30;;;;;;;15.79;100.00;93133.41;5013369;28;20050;-84
2023/09/04 09:19:57;;;;;;;4.07;3.67;;;;;;;15.56;98.81;93143.78;5012256;28;20056;-84
2023/09/04 09:22:24;;;;;;;5.13;4.45;;;;;;;15.45;100.00;93132.53;5013980;28;20096;-82
2023/09/04 09:24:53;;;;;;;4.82;4.03;;;;;;;15.36;100.00;93131.41;5014315;28;20046;-83
2023/09/04 09:27:21;;;;;;;4.93;3.83;;;;;;;15.34;100.00;93079.91;5009894;28;20042;-86
2023/09/04 09:29:49;;;;;;;5.07;4.10;;;;;;;15.74;100.00;93109.03;5014828;28;20142;-83
2023/09/04 09:32:17;;;;;;;6.03;3.60;;;;;;;15.98;100.00;93129.47;5012322;28;20046;-84
2023/09/04 09:34:49;;;;;;;5.05;4.10;;;;;;;16.02;100.00;93122.78;5013158;28;20041;-83
2023/09/04 09:37:17;;;;;;;5.25;4.20;;;;;;;15.94;100.00;93127.63;5014303;28;20409;-85
2023/09/04 09:39:44;;;;;;;6.65;4.50;;;;;;;16.02;100.00;93122.03;5013563;28;20148;-83
2023/09/04 09:42:11;;;;;;;5.35;4.40;;;;;;;16.02;100.00;93124.59;5011074;28;20077;-84
2023/09/04 09:44:38;;;;;;;4.97;4.25;;;;;;;16.17;100.00;93111.00;5010846;28;20574;-84
2023/09/04 09:47:07;;;;;;;5.53;3.70;;;;;;;16.28;100.00;93119.63;5010733;28;20103;-86
2023/09/04 09:49:35;;;;;;;5.25;3.85;;;;;;;15.92;99.85;93094.16;5012746;28;20112;-86
2023/09/04 09:52:02;;;;;;;5.90;4.38;;;;;;;15.89;100.00;93108.38;5008478;28;20056;-84
2023/09/04 09:54:37;;;;;;;5.13;4.35;;;;;;;15.64;100.00;93083.03;5012325;28;20051;-86
2023/09/04 09:57:07;;;;;;;5.20;4.40;;;;;;;15.41;100.00;93090.03;5014179;28;20057;-86
2023/09/04 09:59:35;;;;;;;6.82;5.60;;;;;;;15.52;100.00;93109.06;5015426;28;20041;-85
2023/09/04 10:02:04;;;;;;;6.60;4.53;;;;;;;15.69;100.00;93111.56;5011601;28;20038;-84
2023/09/04 10:04:31;;;;;;;5.25;4.45;;;;;;;15.46;100.00;93115.22;5015159;28;20041;-85
2023/09/04 10:07:00;;;;;;;5.55;4.75;;;;;;;15.43;100.00;93095.78;5013866;28;20096;-85
2023/09/04 10:09:28;;;;;;;6.60;4.28;;;;;;;15.41;100.00;93104.81;5015526;28;20447;-85
2023/09/04 10:12:03;;;;;;;6.00;4.70;;;;;;;15.47;100.00;93102.00;5016067;28;20049;-85
2023/09/04 10:14:34;;;;;;;6.30;4.20;;;;;;;15.56;100.00;93106.78;5016159;28;20119;-84
2023/09/04 10:17:03;;;;;;;5.30;4.47;;;;;;;15.45;100.00;93105.88;5008164;28;20046;-85
2023/09/04 10:19:33;;;;;;;6.75;5.22;;;;;;;15.40;100.00;93083.31;5014381;28;20045;-84
2023/09/04 10:22:04;;;;;;;6.68;4.95;;;;;;;15.29;100.00;93089.41;5014677;28;20045;-84
2023/09/04 10:24:40;;;;;;;5.70;4.70;;;;;;;15.46;100.00;93094.50;5012446;28;20129;-84
2023/09/04 10:27:10;;;;;;;7.07;4.80;;;;;;;15.60;100.00;93094.91;5012973;28;20125;-84
2023/09/04 10:29:46;;;;;;;6.13;4.35;;;;;;;15.69;100.00;93098.63;5014330;28;20041;-84
2023/09/04 10:32:14;;;;;;;6.78;5.00;;;;;;;15.66;100.00;93111.28;5013676;28;20045;-83
2023/09/04 10:34:41;;;;;;;6.07;4.78;;;;;;;15.19;100.00;93057.19;5014044;28;20096;-85
2023/09/04 10:37:11;;;;;;;8.05;4.47;;;;;;;15.33;100.00;93099.00;5012860;28;20429;-86
2023/09/04 10:39:39;;;;;;;5.88;4.55;;;;;;;15.40;100.00;93093.66;5012427;28;20049;-85
2023/09/04 10:42:08;;;;;;;5.80;5.20;;;;;;;15.34;100.00;93113.53;5013282;28;20530;-84
2023/09/04 10:44:53;;;;;;;6.38;5.32;;;;;;;15.20;100.00;93107.16;5014617;28;20061;-85
2023/09/04 10:47:21;;;;;;;6.07;5.10;;;;;;;15.30;100.00;93117.63;5012938;28;20053;-85
2023/09/04 10:49:49;;;;;;;6.20;4.90;;;;;;;15.19;100.00;93095.25;5012967;28;20448;-84
2023/09/04 10:52:16;;;;;;;6.22;5.20;;;;;;;15.45;100.00;93106.66;5010379;28;20049;-85
2023/09/04 10:54:43;;;;;;;7.53;5.93;;;;;;;15.27;100.00;93078.50;5014291;28;20126;-85
2023/09/04 10:57:12;;;;;;;6.75;5.53;;;;;;;15.63;100.00;93112.53;5013907;28;20057;-85
2023/09/04 11:00:00;;;;;;;7.25;5.85;;;;;;;15.32;100.00;93120.75;5010960;28;20046;-82
2023/09/04 11:02:28;;;;;;;6.72;5.88;;;;;;;15.24;100.00;93110.84;5013179;28;20045;-84
2023/09/04 11:04:57;;;;;;;7.60;6.10;;;;;;;14.99;100.00;93101.72;5009784;28;20050;-85
2023/09/04 11:07:30;;;;;;;6.72;5.88;;;;;;;14.94;100.00;93107.63;5008185;28;20073;-83
2023/09/04 11:10:28;;;;;;;11.05;8.20;;;;;;;14.79;100.00;93110.00;5008562;28;20041;-83
2023/09/04 11:12:57;;;;;;;9.15;7.28;;;;;;;14.86;100.00;93120.19;5010783;28;20096;-79
2023/09/04 11:15:24;;;;;;;9.68;7.85;;;;;;;14.83;100.00;93126.59;5009281;28;20045;-79
2023/09/04 11:17:51;;;;;;;10.55;8.70;;;;;;;14.58;100.00;93091.56;5013136;28;20061;-79
2023/09/04 11:20:23;;;;;;;9.27;7.90;;;;;;;14.75;100.00;93119.25;5011600;28;20831;-78
2023/09/04 11:22:50;;;;;;;11.18;9.40;;;;;;;14.60;100.00;93099.09;5010223;28;20131;-78
2023/09/04 11:25:17;;;;;;;10.35;8.10;;;;;;;14.80;100.00;93109.75;5013861;28;20096;-78
2023/09/04 11:27:44;;;;;;;9.93;8.35;;;;;;;14.76;100.00;93094.97;5011937;28;20541;-77